| time (UTC) | temp F | wind direction | speed knots | gust knots | rain 1hr in | rain 24hr in | rain mn in | humidity % | barometer mb |
| 20260506163210 | 49 | 200 | 1.7 | 0.0 | 0.00 | 0.00 | 0.53 | 91 | 1007.4 |
| 20260506160210 | 49 | 169 | 3.5 | 0.0 | 0.00 | 0.00 | 0.52 | 90 | 1007.4 |
| 20260506153210 | 49 | 179 | 3.5 | 0.0 | 0.00 | 0.00 | 0.51 | 90 | 1007.3 |
| 20260506150210 | 50 | 211 | 7.0 | 0.0 | 0.00 | 0.00 | 0.50 | 90 | 1007.1 |
| 20260506143210 | 50 | 178 | 0.0 | 0.0 | 0.00 | 0.00 | 0.46 | 92 | 1006.7 |
| 20260506140210 | 51 | 209 | 0.0 | 0.0 | 0.00 | 0.00 | 0.32 | 89 | 1006.3 |
| 20260506133211 | 51 | 306 | 3.5 | 0.0 | 0.00 | 0.00 | 0.31 | 90 | 1006.0 |
| 20260506130211 | 51 | 360 | 0.9 | 0.0 | 0.00 | 0.00 | 0.29 | 88 | 1005.8 |
| 20260506123210 | 51 | 338 | 4.3 | 0.0 | 0.00 | 0.00 | 0.27 | 85 | 1005.7 |
| 20260506120210 | 55 | 85 | 0.9 | 0.0 | 0.00 | 0.00 | 0.14 | 82 | 1005.1 |
| 20260506113217 | 55 | 192 | 0.9 | 0.0 | 0.00 | 0.00 | 0.14 | 79 | 1005.0 |
| 20260506110210 | 53 | 264 | 2.6 | 0.0 | 0.00 | 0.00 | 0.14 | 84 | 1005.2 |
| 20260506100213 | 58 | 263 | 0.0 | 0.0 | 0.00 | 0.00 | 0.00 | 69 | 1005.2 |
| 20260506093211 | 57 | 315 | 0.0 | 0.0 | 0.00 | 0.00 | 0.00 | 67 | 1005.3 |
| 20260506090211 | 57 | 69 | 0.9 | 0.0 | 0.00 | 0.00 | 0.00 | 72 | 1005.4 |
| 20260506083211 | 56 | 108 | 0.0 | 0.0 | 0.00 | 0.00 | 0.00 | 77 | 1005.2 |
| 20260506080212 | 55 | 294 | 3.5 | 0.0 | 0.00 | 0.00 | 0.00 | 80 | 1005.4 |
| 20260506073211 | 53 | 111 | 0.0 | 0.0 | 0.00 | 0.00 | 0.00 | 84 | 1005.5 |
| 20260506070212 | 51 | 100 | 0.9 | 0.0 | 0.00 | 0.00 | 0.00 | 89 | 1005.5 |
| 20260506060210 | 46 | 121 | 0.0 | 0.0 | 0.00 | 0.00 | 0.00 | 94 | 1005.6 |
| 20260506050211 | 44 | 214 | 0.0 | 0.0 | 0.00 | 0.00 | 0.00 | 95 | 1006.1 |
| 20260506043211 | 44 | 214 | 0.0 | 0.0 | 0.00 | 0.00 | 0.00 | 94 | 1006.2 |
| 20260506040211 | 45 | 118 | 0.9 | 0.0 | 0.00 | 0.00 | 0.00 | 94 | 1006.3 |
| 20260506033211 | 45 | 105 | 0.0 | 0.0 | 0.00 | 0.00 | 0.00 | 94 | 1006.3 |
| 20260506030212 | 44 | 124 | 0.0 | 0.0 | 0.00 | 0.00 | 0.00 | 94 | 1006.7 |
| 20260506023211 | 44 | 109 | 1.7 | 0.0 | 0.00 | 0.00 | 0.00 | 93 | 1007.1 |
| 20260506020212 | 45 | 182 | 0.0 | 0.0 | 0.00 | 0.00 | 0.00 | 93 | 1007.0 |
| 20260506013211 | 46 | 202 | 0.0 | 0.0 | 0.00 | 0.00 | 0.00 | 92 | 1007.1 |
| 20260506010212 | 47 | 107 | 4.3 | 0.0 | 0.00 | 0.00 | 0.00 | 94 | 1007.5 |
| 20260506003209 | 47 | 94 | 0.0 | 0.0 | 0.00 | 0.00 | 0.00 | 92 | 1007.4 |
| 20260506000211 | 48 | 94 | 0.0 | 0.0 | 0.00 | 0.00 | 0.00 | 91 | 1007.6 |
| 20260505233209 | 48 | 97 | 2.6 | 0.0 | 0.00 | 0.00 | 0.00 | 91 | 1008.0 |
| 20260505230209 | 48 | 91 | 0.0 | 0.0 | 0.00 | 0.00 | 0.00 | 92 | 1008.0 |
| 20260505223209 | 48 | 90 | 0.0 | 0.0 | 0.00 | 0.00 | 0.00 | 93 | 1008.0 |
| 20260505220209 | 48 | 112 | 0.9 | 0.0 | 0.00 | 0.00 | 0.00 | 92 | 1008.1 |
| 20260505213211 | 49 | 110 | 0.0 | 0.0 | 0.00 | 0.00 | 0.14 | 90 | 1008.3 |
| 20260505210215 | 51 | 69 | 1.7 | 0.0 | 0.00 | 0.00 | 0.14 | 88 | 1008.2 |
| 20260505203209 | 51 | 108 | 3.5 | 0.0 | 0.00 | 0.00 | 0.14 | 91 | 1007.9 |
| 20260505200210 | 52 | 196 | 2.6 | 0.0 | 0.00 | 0.00 | 0.14 | 90 | 1007.7 |
| 20260505193209 | 52 | 248 | 0.9 | 0.0 | 0.00 | 0.00 | 0.14 | 89 | 1007.2 |
| 20260505190215 | 53 | 210 | 1.7 | 0.0 | 0.00 | 0.00 | 0.14 | 87 | 1007.3 |
| 20260505183212 | 53 | 194 | 0.0 | 0.0 | 0.00 | 0.00 | 0.14 | 87 | 1007.1 |
| 20260505180211 | 54 | 128 | 1.7 | 0.0 | 0.00 | 0.00 | 0.14 | 86 | 1006.9 |
| 20260505173210 | 54 | 93 | 0.0 | 0.0 | 0.00 | 0.00 | 0.14 | 86 | 1007.1 |
| 20260505170210 | 53 | 206 | 1.7 | 0.0 | 0.00 | 0.00 | 0.14 | 86 | 1006.9 |